Terminal Aerodrome Forecast
Issued by NWS

Home | Current Version | Previous Version | Text Only | Print | Product List | Glossary On
Versions: 1 2 3 4 5 6 7 8 9 10 11 12 13 14 15 16
000
FTUS42 KFFC 250500
TAFRYY
TAF
KRYY 250537Z 2506/2606 17005KT P6SM SCT050 OVC070
     FM250700 20005KT P6SM VCSH SCT012 BKN050 OVC070
     FM250900 21007KT P6SM VCSH BKN012 OVC050
      TEMPO 2509/2512 5SM SHRA BR
     FM251400 24010G20KT P6SM BKN035
     FM252000 28012KT P6SM SCT045
     FM260100 32008KT P6SM SKC
      AMD NOT SKED TIL 251200=

USA.gov is the U.S. government's official web portal to all federal, state and local government web resources and services.